createdAt,value
2019-05-01T00:01:31.732Z,100313.24
2019-05-01T00:04:05.635Z,100306.78
2019-05-01T00:06:36.881Z,100309.77
2019-05-01T00:09:10.072Z,100310.58
2019-05-01T00:11:39.868Z,100311.89
2019-05-01T00:14:09.933Z,100309.80
2019-05-01T00:16:40.166Z,100308.69
2019-05-01T00:19:11.153Z,100305.95
2019-05-01T00:21:40.759Z,100305.16
2019-05-01T00:24:10.384Z,100302.73
2019-05-01T00:26:39.990Z,100304.08
2019-05-01T00:29:09.622Z,100304.05
2019-05-01T00:31:39.217Z,100301.40
2019-05-01T00:34:08.848Z,100301.72
2019-05-01T00:36:38.484Z,100301.17
2019-05-01T00:39:09.829Z,100290.14
2019-05-01T00:41:39.436Z,100291.48
2019-05-01T00:44:09.060Z,100283.42
2019-05-01T00:46:38.954Z,100280.73
2019-05-01T00:49:08.566Z,100286.66
2019-05-01T00:51:38.173Z,100284.55
2019-05-01T00:54:07.786Z,100282.22
2019-05-01T00:56:41.808Z,100276.31
2019-05-01T00:59:22.037Z,100281.73
2019-05-01T01:01:56.370Z,100277.95
2019-05-01T01:04:26.074Z,100276.03
2019-05-01T01:06:55.699Z,100276.56
2019-05-01T01:09:25.362Z,100277.63
2019-05-01T01:11:54.974Z,100269.25
2019-05-01T01:14:24.611Z,100266.52
2019-05-01T01:16:54.223Z,100262.50
2019-05-01T01:19:23.928Z,100268.70
2019-05-01T01:21:53.902Z,100266.81
2019-05-01T01:24:23.882Z,100263.05
2019-05-01T01:26:53.909Z,100267.08
2019-05-01T01:29:23.563Z,100265.48
2019-05-01T01:31:53.190Z,100260.89
2019-05-01T01:34:22.815Z,100261.45
2019-05-01T01:36:52.424Z,100253.91
2019-05-01T01:39:22.079Z,100252.81
2019-05-01T01:41:52.150Z,100257.94
2019-05-01T01:44:38.907Z,100258.72
2019-05-01T01:47:08.874Z,100253.89
2019-05-01T01:49:38.670Z,100257.92
2019-05-01T01:52:08.707Z,100257.66
2019-05-01T01:54:38.330Z,100250.09
2019-05-01T01:57:07.937Z,100249.55
2019-05-01T01:59:37.758Z,100250.63
2019-05-01T02:02:11.726Z,100252.22
2019-05-01T02:04:48.882Z,100248.41
2019-05-01T02:07:18.662Z,100247.84
2019-05-01T02:09:48.352Z,100237.83
2019-05-01T02:12:19.085Z,100232.66
2019-05-01T02:14:49.293Z,100235.91
2019-05-01T02:17:18.920Z,100242.62
2019-05-01T02:19:48.530Z,100243.41
2019-05-01T02:22:18.151Z,100241.48
2019-05-01T02:24:47.765Z,100234.16
2019-05-01T02:27:19.081Z,100234.13
2019-05-01T02:29:51.471Z,100229.23
2019-05-01T02:32:24.268Z,100228.98
2019-05-01T02:34:56.192Z,100229.48
2019-05-01T02:37:28.896Z,100226.78
2019-05-01T02:40:01.677Z,100226.80
2019-05-01T02:42:35.059Z,100232.19
2019-05-01T02:45:06.280Z,100229.44
2019-05-01T02:47:38.702Z,100222.36
2019-05-01T02:50:11.898Z,100221.52
2019-05-01T02:52:44.127Z,100221.48
2019-05-01T02:55:17.127Z,100216.56
2019-05-01T02:57:48.146Z,100215.46
2019-05-01T03:00:19.363Z,100212.52
2019-05-01T03:02:49.774Z,100213.86
2019-05-01T03:05:19.425Z,100209.81
2019-05-01T03:07:49.270Z,100213.33
2019-05-01T03:10:19.698Z,100208.45
2019-05-01T03:12:52.424Z,100203.84
2019-05-01T03:15:25.591Z,100200.86
2019-05-01T03:17:57.742Z,100205.70
2019-05-01T03:20:30.146Z,100206.27
2019-05-01T03:23:16.418Z,100201.95
2019-05-01T03:25:46.187Z,100203.53
2019-05-01T03:28:16.031Z,100201.11
2019-05-01T03:30:46.663Z,100203.05
2019-05-01T03:33:16.593Z,100203.34
2019-05-01T03:35:46.564Z,100199.25
2019-05-01T03:38:16.942Z,100202.27
2019-05-01T03:40:46.992Z,100197.90
2019-05-01T03:43:17.035Z,100200.91
2019-05-01T03:45:46.939Z,100196.08
2019-05-01T03:48:16.706Z,100196.64
2019-05-01T03:50:47.443Z,100195.34
2019-05-01T03:53:18.126Z,100196.47
2019-05-01T03:55:48.240Z,100204.03
2019-05-01T03:58:18.796Z,100201.56
2019-05-01T04:00:53.417Z,100190.14
2019-05-01T04:03:36.791Z,100187.94
2019-05-01T04:06:06.775Z,100189.57
2019-05-01T04:08:37.403Z,100190.95
2019-05-01T04:11:07.441Z,100200.94
2019-05-01T04:13:37.309Z,100196.38
2019-05-01T04:16:06.933Z,100195.88
2019-05-01T04:18:36.740Z,100199.42
2019-05-01T04:21:09.102Z,100197.51
2019-05-01T04:23:41.546Z,100193.48
2019-05-01T04:26:11.973Z,100195.17
2019-05-01T04:28:43.223Z,100200.03
2019-05-01T04:31:23.843Z,100205.11
2019-05-01T04:33:55.873Z,100202.45
2019-05-01T04:36:42.043Z,100209.20
2019-05-01T04:39:11.880Z,100214.30
2019-05-01T04:41:41.716Z,100207.27
2019-05-01T04:44:11.643Z,100211.83
2019-05-01T04:46:41.948Z,100212.91
2019-05-01T04:49:11.694Z,100211.50
2019-05-01T04:51:41.874Z,100211.16
2019-05-01T04:54:11.487Z,100206.32
2019-05-01T04:56:41.377Z,100210.06
2019-05-01T04:59:11.755Z,100213.48
2019-05-01T05:01:57.339Z,100217.98
2019-05-01T05:04:27.641Z,100229.05
2019-05-01T05:06:57.802Z,100227.41
2019-05-01T05:09:38.680Z,100224.39
2019-05-01T05:12:11.350Z,100226.78
2019-05-01T05:14:55.094Z,100230.27
2019-05-01T05:17:26.751Z,100229.77
2019-05-01T05:19:56.994Z,100230.83
2019-05-01T05:22:26.791Z,100227.84
2019-05-01T05:24:56.393Z,100233.19
2019-05-01T05:27:26.622Z,100229.88
2019-05-01T05:29:58.229Z,100232.30
2019-05-01T05:32:30.371Z,100235.70
2019-05-01T05:35:02.515Z,100231.81
2019-05-01T05:37:38.148Z,100227.85
2019-05-01T05:40:08.397Z,100223.37
2019-05-01T05:42:38.824Z,100228.30
2019-05-01T05:45:08.776Z,100224.59
2019-05-01T05:47:38.936Z,100225.17
2019-05-01T05:50:10.595Z,100224.19
2019-05-01T05:52:55.931Z,100225.38
2019-05-01T05:55:32.379Z,100221.94
2019-05-01T05:58:05.910Z,100217.14
2019-05-01T06:00:44.297Z,100221.61
2019-05-01T06:03:35.235Z,100224.02
2019-05-01T06:06:09.913Z,100225.14
2019-05-01T06:08:43.855Z,100229.08
2019-05-01T06:11:19.145Z,100222.07
2019-05-01T06:13:57.171Z,100223.81
2019-05-01T06:16:31.522Z,100220.48
2019-05-01T06:19:02.775Z,100226.72
2019-05-01T06:21:34.952Z,100222.65
2019-05-01T06:24:10.491Z,100232.20
2019-05-01T06:26:40.263Z,100229.65
2019-05-01T06:29:09.886Z,100233.29
2019-05-01T06:31:39.991Z,100236.35
2019-05-01T06:34:09.785Z,100239.17
2019-05-01T06:36:44.295Z,100236.71
2019-05-01T06:39:15.556Z,100238.41
2019-05-01T06:41:46.103Z,100236.39
2019-05-01T06:44:19.874Z,100235.69
2019-05-01T06:47:07.460Z,100239.02
2019-05-01T06:49:53.353Z,100232.63
2019-05-01T06:52:29.234Z,100229.27
2019-05-01T06:54:58.955Z,100232.53
2019-05-01T06:57:30.075Z,100225.16
2019-05-01T07:00:07.623Z,100226.83
2019-05-01T07:02:35.055Z,100219.31
2019-05-01T07:05:09.038Z,100215.82
2019-05-01T07:07:38.861Z,100224.76
2019-05-01T07:10:09.196Z,100218.44
2019-05-01T07:12:39.417Z,100212.28
2019-05-01T07:15:09.366Z,100230.20
2019-05-01T07:17:39.496Z,100227.52
2019-05-01T07:20:16.936Z,100231.72
2019-05-01T07:22:46.784Z,100225.66
2019-05-01T07:25:16.650Z,100232.81
2019-05-01T07:27:46.250Z,100228.70
2019-05-01T07:30:29.400Z,100229.36
2019-05-01T07:32:59.510Z,100225.94
2019-05-01T07:35:32.921Z,100225.50
2019-05-01T07:38:02.210Z,100225.75
2019-05-01T07:40:32.395Z,100224.72
2019-05-01T07:43:07.756Z,100228.16
2019-05-01T07:45:43.572Z,100224.14
2019-05-01T07:48:14.668Z,100227.77
2019-05-01T07:50:44.682Z,100221.77
2019-05-01T07:53:14.636Z,100226.72
2019-05-01T07:55:44.622Z,100223.27
2019-05-01T07:58:15.844Z,100227.94
2019-05-01T08:00:56.562Z,100222.06
2019-05-01T08:03:26.187Z,100222.64
2019-05-01T08:05:55.816Z,100227.28
2019-05-01T08:08:25.683Z,100221.79
2019-05-01T08:10:55.412Z,100229.55
2019-05-01T08:13:25.038Z,100228.56
2019-05-01T08:15:54.831Z,100228.64
2019-05-01T08:18:27.887Z,100230.89
2019-05-01T08:21:04.602Z,100228.19
2019-05-01T08:23:34.220Z,100223.87
2019-05-01T08:26:08.765Z,100230.87
2019-05-01T08:28:46.937Z,100229.86
2019-05-01T08:31:29.001Z,100231.66
2019-05-01T08:34:20.694Z,100235.58
2019-05-01T08:36:48.463Z,100238.34
2019-05-01T08:39:18.128Z,100237.58
2019-05-01T08:41:48.017Z,100233.28
2019-05-01T08:44:18.709Z,100236.97
2019-05-01T08:46:50.929Z,100234.02
2019-05-01T08:49:34.464Z,100237.13
2019-05-01T08:52:04.840Z,100237.04
2019-05-01T08:54:35.396Z,100240.08
2019-05-01T08:57:07.828Z,100236.78
2019-05-01T08:59:36.699Z,100233.67
2019-05-01T09:02:09.245Z,100234.27
2019-05-01T09:04:37.650Z,100234.96
2019-05-01T09:07:07.272Z,100236.57
2019-05-01T09:09:39.685Z,100238.53
2019-05-01T09:12:11.867Z,100237.33
2019-05-01T09:14:39.568Z,100232.45
2019-05-01T09:17:09.229Z,100240.19
2019-05-01T09:19:38.842Z,100231.75
2019-05-01T09:22:08.475Z,100231.02
2019-05-01T09:24:39.730Z,100235.75
2019-05-01T09:27:24.110Z,100230.00
2019-05-01T09:29:53.557Z,100226.99
2019-05-01T09:32:23.313Z,100231.48
2019-05-01T09:34:52.939Z,100223.53
2019-05-01T09:37:22.562Z,100229.63
2019-05-01T09:39:52.172Z,100221.43
2019-05-01T09:42:23.647Z,100225.62
2019-05-01T09:44:53.200Z,100222.95
2019-05-01T09:47:23.298Z,100208.11
2019-05-01T09:49:53.819Z,100219.66
2019-05-01T09:52:28.700Z,100206.37
2019-05-01T09:55:08.912Z,100212.81
2019-05-01T09:57:41.272Z,100204.44
2019-05-01T10:00:12.244Z,100204.28
2019-05-01T10:02:43.824Z,100205.36
2019-05-01T10:05:13.202Z,100197.09
2019-05-01T10:07:42.826Z,100193.35
2019-05-01T10:10:12.833Z,100196.64
2019-05-01T10:12:47.033Z,100192.97
2019-05-01T10:15:14.608Z,100197.22
2019-05-01T10:17:44.370Z,100183.55
2019-05-01T10:20:14.227Z,100180.69
2019-05-01T10:22:43.887Z,100180.55
2019-05-01T10:25:13.807Z,100175.19
2019-05-01T10:27:45.202Z,100177.19
2019-05-01T10:30:22.836Z,100168.04
2019-05-01T10:32:57.913Z,100169.27
2019-05-01T10:35:41.976Z,100175.58
2019-05-01T10:38:04.688Z,100180.48
2019-05-01T10:40:34.261Z,100177.54
2019-05-01T10:43:04.244Z,100179.13
2019-05-01T10:45:34.071Z,100166.58
2019-05-01T10:48:03.794Z,100177.08
2019-05-01T10:50:33.523Z,100166.53
2019-05-01T10:53:03.398Z,100160.66
2019-05-01T10:55:33.062Z,100161.67
2019-05-01T10:58:03.393Z,100172.58
2019-05-01T11:00:34.246Z,100164.75
2019-05-01T11:03:03.917Z,100159.02
2019-05-01T11:05:33.577Z,100157.80
2019-05-01T11:08:03.349Z,100155.86
2019-05-01T11:10:32.976Z,100159.28
2019-05-01T11:13:02.787Z,100142.24
2019-05-01T11:15:32.389Z,100148.45
2019-05-01T11:18:01.993Z,100143.73
2019-05-01T11:20:31.625Z,100139.07
2019-05-01T11:23:01.300Z,100141.56
2019-05-01T11:25:30.916Z,100138.28
2019-05-01T11:28:00.552Z,100138.99
2019-05-01T11:30:30.174Z,100138.99
2019-05-01T11:33:04.046Z,100144.56
2019-05-01T11:35:51.633Z,100143.80
2019-05-01T11:38:29.908Z,100137.56
2019-05-01T11:41:01.154Z,100135.98
2019-05-01T11:43:30.763Z,100135.19
2019-05-01T11:46:00.372Z,100133.02
2019-05-01T11:48:31.928Z,100134.33
2019-05-01T11:51:01.309Z,100133.67
2019-05-01T11:53:30.974Z,100125.06
2019-05-01T11:56:00.527Z,100134.09
2019-05-01T11:58:30.131Z,100129.05
2019-05-01T12:01:01.380Z,100118.94
2019-05-01T12:03:30.981Z,100121.23
2019-05-01T12:06:00.615Z,100127.88
2019-05-01T12:08:30.241Z,100121.47
2019-05-01T12:11:00.717Z,100116.60
2019-05-01T12:13:42.744Z,100111.36
2019-05-01T12:16:06.202Z,100110.16
2019-05-01T12:18:35.808Z,100109.10
2019-05-01T12:21:05.417Z,100095.95
2019-05-01T12:23:35.026Z,100082.59
2019-05-01T12:26:04.694Z,100085.97
2019-05-01T12:28:34.302Z,100080.80
2019-05-01T12:31:05.561Z,100074.01
2019-05-01T12:33:35.160Z,100078.45
2019-05-01T12:36:05.288Z,100067.97
2019-05-01T12:38:34.897Z,100069.99
2019-05-01T12:41:21.191Z,100069.55
2019-05-01T12:43:50.792Z,100063.56
2019-05-01T12:46:40.264Z,100071.77
2019-05-01T12:49:09.874Z,100069.31
2019-05-01T12:51:40.842Z,100068.51
2019-05-01T12:54:17.545Z,100060.20
2019-05-01T12:56:48.805Z,100066.81
2019-05-01T12:59:18.824Z,100065.72
2019-05-01T13:01:48.430Z,100054.88
2019-05-01T13:04:18.027Z,100052.55
2019-05-01T13:06:51.529Z,100043.73
2019-05-01T13:09:21.138Z,100056.77
2019-05-01T13:11:50.996Z,100044.80
2019-05-01T13:14:20.596Z,100042.70
2019-05-01T13:16:50.208Z,100054.09
2019-05-01T13:19:19.813Z,100050.05
2019-05-01T13:21:49.429Z,100058.78
2019-05-01T13:24:19.016Z,100052.53
2019-05-01T13:26:53.132Z,100049.08
2019-05-01T13:29:30.000Z,100039.88
2019-05-01T13:32:13.365Z,100047.05
2019-05-01T13:34:43.002Z,100035.11
2019-05-01T13:37:12.685Z,100036.31
2019-05-01T13:39:42.300Z,100038.61
2019-05-01T13:42:11.905Z,100024.25
2019-05-01T13:44:41.542Z,100028.23
2019-05-01T13:47:11.135Z,100021.06
2019-05-01T13:49:40.754Z,100021.98
2019-05-01T13:52:10.376Z,100016.95
2019-05-01T13:54:39.987Z,100010.84
2019-05-01T13:57:09.625Z,100004.09
2019-05-01T13:59:39.223Z,100003.52
2019-05-01T14:02:08.897Z,99997.56
2019-05-01T14:04:38.665Z,99992.19
2019-05-01T14:07:16.416Z,99990.66
2019-05-01T14:09:40.418Z,99986.08
2019-05-01T14:12:10.042Z,99985.72
2019-05-01T14:14:39.633Z,99982.31
2019-05-01T14:17:09.236Z,99982.12
2019-05-01T14:19:40.462Z,99976.88
2019-05-01T14:22:27.569Z,99965.05
2019-05-01T14:24:58.789Z,99973.14
2019-05-01T14:27:28.390Z,99975.84
2019-05-01T14:29:58.040Z,99970.52
2019-05-01T14:32:28.017Z,99968.70
2019-05-01T14:34:57.614Z,99966.84
2019-05-01T14:37:29.850Z,99958.30
2019-05-01T14:39:58.543Z,99956.39
2019-05-01T14:42:28.192Z,99954.95
2019-05-01T14:44:57.805Z,99947.27
2019-05-01T14:47:27.408Z,99938.22
2019-05-01T14:49:57.356Z,99951.68
2019-05-01T14:52:26.948Z,99937.63
2019-05-01T14:54:56.563Z,99928.52
2019-05-01T14:57:26.164Z,99929.98
2019-05-01T14:59:56.640Z,99934.16
2019-05-01T15:02:26.259Z,99939.81
2019-05-01T15:04:55.867Z,99938.30
2019-05-01T15:07:25.468Z,99924.93
2019-05-01T15:09:55.072Z,99929.06
2019-05-01T15:12:24.696Z,99932.11
2019-05-01T15:14:54.059Z,99920.94
2019-05-01T15:17:25.309Z,99921.46
2019-05-01T15:19:56.543Z,99929.75
2019-05-01T15:22:26.144Z,99920.69
2019-05-01T15:24:55.744Z,99919.71
2019-05-01T15:27:25.357Z,99919.05
2019-05-01T15:29:54.983Z,99911.31
2019-05-01T15:32:24.575Z,99917.28
2019-05-01T15:34:54.238Z,99918.86
2019-05-01T15:37:23.952Z,99917.20
2019-05-01T15:39:57.963Z,99907.73
2019-05-01T15:42:29.302Z,99908.97
2019-05-01T15:44:58.970Z,99911.57
2019-05-01T15:47:28.583Z,99902.63
2019-05-01T15:49:58.191Z,99910.80
2019-05-01T15:52:27.810Z,99910.17
2019-05-01T15:54:57.412Z,99902.80
2019-05-01T15:57:27.068Z,99902.01
2019-05-01T15:59:56.663Z,99902.28
2019-05-01T16:02:26.286Z,99895.75
2019-05-01T16:04:55.879Z,99895.46
2019-05-01T16:07:25.499Z,99892.35
2019-05-01T16:09:55.107Z,99893.58
2019-05-01T16:12:26.385Z,99889.16
2019-05-01T16:14:56.005Z,99897.53
2019-05-01T16:17:25.580Z,99894.28
2019-05-01T16:19:55.178Z,99895.33
2019-05-01T16:22:24.804Z,99892.75
2019-05-01T16:24:54.398Z,99893.47
2019-05-01T16:27:24.022Z,99900.26
2019-05-01T16:29:53.619Z,99895.58
2019-05-01T16:32:23.408Z,99895.30
2019-05-01T16:34:53.013Z,99889.09
2019-05-01T16:37:22.605Z,99894.23
2019-05-01T16:39:53.862Z,99887.34
2019-05-01T16:42:23.966Z,99885.20
2019-05-01T16:44:53.574Z,99885.16
2019-05-01T16:47:23.168Z,99878.80
2019-05-01T16:49:52.768Z,99880.68
2019-05-01T16:52:24.180Z,99877.91
2019-05-01T16:54:59.516Z,99881.77
2019-05-01T16:57:25.283Z,99877.84
2019-05-01T16:59:54.960Z,99873.04
2019-05-01T17:02:42.636Z,99870.37
2019-05-01T17:05:13.943Z,99870.53
2019-05-01T17:07:49.442Z,99867.48
2019-05-01T17:10:26.754Z,99867.70
2019-05-01T17:12:56.838Z,99868.39
2019-05-01T17:15:28.143Z,99862.81
2019-05-01T17:17:57.759Z,99861.88
2019-05-01T17:20:27.834Z,99865.73
2019-05-01T17:22:57.497Z,99860.66
2019-05-01T17:25:29.523Z,99860.65
2019-05-01T17:28:02.882Z,99863.48
2019-05-01T17:30:42.328Z,99861.52
2019-05-01T17:33:20.018Z,99863.28
2019-05-01T17:35:43.349Z,99854.56
2019-05-01T17:38:13.009Z,99860.88
2019-05-01T17:40:42.606Z,99864.36
2019-05-01T17:43:13.419Z,99857.58
2019-05-01T17:45:43.516Z,99853.30
2019-05-01T17:48:13.113Z,99860.41
2019-05-01T17:50:42.722Z,99853.76
2019-05-01T17:53:12.326Z,99857.05
2019-05-01T17:55:41.943Z,99864.91
2019-05-01T17:58:11.546Z,99862.13
2019-05-01T18:00:42.864Z,99864.22
2019-05-01T18:03:32.000Z,99865.70
2019-05-01T18:06:03.270Z,99864.31
2019-05-01T18:08:32.883Z,99861.50
2019-05-01T18:11:02.502Z,99860.01
2019-05-01T18:13:32.183Z,99857.86
2019-05-01T18:16:01.782Z,99859.38
2019-05-01T18:18:31.658Z,99856.45
2019-05-01T18:21:01.266Z,99859.49
2019-05-01T18:23:32.510Z,99856.43
2019-05-01T18:26:04.893Z,99858.12
2019-05-01T18:28:34.858Z,99857.58
2019-05-01T18:31:06.107Z,99852.93
2019-05-01T18:33:35.700Z,99856.56
2019-05-01T18:36:06.443Z,99852.45
2019-05-01T18:38:37.687Z,99854.45
2019-05-01T18:41:08.931Z,99849.50
2019-05-01T18:43:38.536Z,99851.50
2019-05-01T18:46:09.390Z,99852.27
2019-05-01T18:48:39.022Z,99854.44
2019-05-01T18:51:08.805Z,99855.67
2019-05-01T18:53:38.405Z,99858.92
2019-05-01T18:56:08.015Z,99856.11
2019-05-01T18:58:37.614Z,99858.00
2019-05-01T19:01:09.329Z,99857.27
2019-05-01T19:03:42.496Z,99866.00
2019-05-01T19:06:10.116Z,99858.52
2019-05-01T19:08:39.716Z,99866.75
2019-05-01T19:11:12.851Z,99865.08
2019-05-01T19:13:40.776Z,99867.17
2019-05-01T19:16:10.459Z,99870.17
2019-05-01T19:18:40.236Z,99875.27
2019-05-01T19:21:10.419Z,99869.54
2019-05-01T19:23:40.100Z,99866.32
2019-05-01T19:26:10.775Z,99868.80
2019-05-01T19:28:40.364Z,99866.05
2019-05-01T19:31:10.157Z,99863.84
2019-05-01T19:33:41.786Z,99864.31
2019-05-01T19:36:11.333Z,99861.13
2019-05-01T19:38:40.928Z,99860.01
2019-05-01T19:41:14.022Z,99859.97
2019-05-01T19:43:42.262Z,99861.63
2019-05-01T19:46:12.067Z,99859.77
2019-05-01T19:48:45.394Z,99852.48
2019-05-01T19:51:13.876Z,99853.96
2019-05-01T19:53:46.612Z,99852.48
2019-05-01T19:56:16.635Z,99852.39
2019-05-01T19:58:46.232Z,99849.25
2019-05-01T20:01:15.857Z,99848.67
2019-05-01T20:03:45.446Z,99846.89
2019-05-01T20:06:15.120Z,99846.84
2019-05-01T20:08:44.729Z,99845.48
2019-05-01T20:11:14.339Z,99845.86
2019-05-01T20:13:43.936Z,99850.04
2019-05-01T20:16:14.388Z,99848.86
2019-05-01T20:18:44.228Z,99849.55
2019-05-01T20:21:13.818Z,99845.11
2019-05-01T20:23:43.414Z,99847.69
2019-05-01T20:26:13.027Z,99841.14
2019-05-01T20:28:42.631Z,99839.69
2019-05-01T20:31:12.248Z,99846.16
2019-05-01T20:33:44.484Z,99841.66
2019-05-01T20:36:13.187Z,99844.70
2019-05-01T20:38:42.853Z,99844.53
2019-05-01T20:41:15.817Z,99843.11
2019-05-01T20:43:45.349Z,99843.34
2019-05-01T20:46:15.084Z,99837.02
2019-05-01T20:48:44.687Z,99832.47
2019-05-01T20:51:14.294Z,99842.94
2019-05-01T20:53:43.910Z,99831.48
2019-05-01T20:56:24.215Z,99832.57
2019-05-01T20:58:57.845Z,99832.70
2019-05-01T21:01:28.259Z,99839.13
2019-05-01T21:04:16.296Z,99835.73
2019-05-01T21:06:57.618Z,99828.11
2019-05-01T21:09:28.865Z,99830.77
2019-05-01T21:12:05.463Z,99826.76
2019-05-01T21:14:31.080Z,99832.72
2019-05-01T21:17:00.687Z,99832.81
2019-05-01T21:19:32.576Z,99833.12
2019-05-01T21:22:01.628Z,99829.21
2019-05-01T21:24:33.971Z,99829.21
2019-05-01T21:27:03.617Z,99828.45
2019-05-01T21:29:34.345Z,99826.02
2019-05-01T21:32:04.348Z,99822.71
2019-05-01T21:34:33.952Z,99822.27
2019-05-01T21:37:03.559Z,99822.02
2019-05-01T21:39:33.513Z,99816.45
2019-05-01T21:42:06.901Z,99820.45
2019-05-01T21:44:34.542Z,99818.56
2019-05-01T21:47:04.174Z,99816.09
2019-05-01T21:49:33.783Z,99810.92
2019-05-01T21:52:03.800Z,99813.32
2019-05-01T21:54:34.722Z,99811.82
2019-05-01T21:57:04.337Z,99804.75
2019-05-01T21:59:35.361Z,99809.41
2019-05-01T22:02:09.990Z,99804.42
2019-05-01T22:04:36.724Z,99805.70
2019-05-01T22:07:07.663Z,99805.72
2019-05-01T22:09:39.094Z,99803.59
2019-05-01T22:12:13.060Z,99802.28
2019-05-01T22:14:44.278Z,99797.47
2019-05-01T22:17:15.677Z,99793.03
2019-05-01T22:19:45.649Z,99791.06
2019-05-01T22:22:22.997Z,99799.67
2019-05-01T22:24:54.245Z,99795.30
2019-05-01T22:27:26.051Z,99792.72
2019-05-01T22:30:10.778Z,99796.28
2019-05-01T22:32:44.927Z,99788.59
2019-05-01T22:35:17.139Z,99782.70
2019-05-01T22:37:46.738Z,99783.85
2019-05-01T22:40:18.606Z,99784.53
2019-05-01T22:42:48.206Z,99779.82
2019-05-01T22:45:24.536Z,99784.16
2019-05-01T22:47:54.131Z,99780.77
2019-05-01T22:50:24.473Z,99784.46
2019-05-01T22:52:54.073Z,99780.43
2019-05-01T22:55:25.340Z,99777.17
2019-05-01T22:57:55.143Z,99767.63
2019-05-01T23:00:30.793Z,99772.30
2019-05-01T23:03:05.596Z,99759.49
2019-05-01T23:05:33.353Z,99761.55
2019-05-01T23:08:02.958Z,99760.71
2019-05-01T23:10:32.986Z,99755.52
2019-05-01T23:13:02.584Z,99761.19
2019-05-01T23:15:32.932Z,99758.64
2019-05-01T23:18:02.609Z,99762.08
2019-05-01T23:20:34.777Z,99757.56
2019-05-01T23:23:03.540Z,99748.59
2019-05-01T23:25:36.527Z,99749.37
2019-05-01T23:28:06.012Z,99743.08
2019-05-01T23:30:35.710Z,99747.30
2019-05-01T23:33:05.444Z,99746.39
2019-05-01T23:35:35.060Z,99746.77
2019-05-01T23:38:04.663Z,99740.88
2019-05-01T23:40:34.284Z,99735.68
2019-05-01T23:43:03.869Z,99738.52
2019-05-01T23:45:33.498Z,99734.05
2019-05-01T23:48:03.095Z,99729.95
2019-05-01T23:50:32.722Z,99723.17
2019-05-01T23:53:02.322Z,99723.95
2019-05-01T23:55:31.938Z,99719.55
2019-05-01T23:58:01.544Z,99711.30
